sensor_id;sensor_type;location;lat;lon;timestamp;pressure;altitude;pressure_sealevel;temperature
19666;BMP180;9980;51.020;7.772;2023-04-03T00:00:56;98609.00;;;6.10
19666;BMP180;9980;51.020;7.772;2023-04-03T00:03:24;98605.00;;;6.10
19666;BMP180;9980;51.020;7.772;2023-04-03T00:05:51;98602.00;;;6.10
19666;BMP180;9980;51.020;7.772;2023-04-03T00:08:18;98607.00;;;6.10
19666;BMP180;9980;51.020;7.772;2023-04-03T00:10:46;98593.00;;;6.10
19666;BMP180;9980;51.020;7.772;2023-04-03T00:13:13;98597.00;;;6.10
19666;BMP180;9980;51.020;7.772;2023-04-03T00:15:41;98603.00;;;6.10
19666;BMP180;9980;51.020;7.772;2023-04-03T00:18:09;98590.00;;;6.10
19666;BMP180;9980;51.020;7.772;2023-04-03T00:20:36;98601.00;;;6.10
19666;BMP180;9980;51.020;7.772;2023-04-03T00:23:03;98598.00;;;6.00
19666;BMP180;9980;51.020;7.772;2023-04-03T00:25:31;98613.00;;;6.00
19666;BMP180;9980;51.020;7.772;2023-04-03T00:27:58;98606.00;;;6.00
19666;BMP180;9980;51.020;7.772;2023-04-03T00:30:25;98606.00;;;6.00
19666;BMP180;9980;51.020;7.772;2023-04-03T00:32:53;98601.00;;;5.90
19666;BMP180;9980;51.020;7.772;2023-04-03T00:35:21;98599.00;;;5.90
19666;BMP180;9980;51.020;7.772;2023-04-03T00:37:51;98594.00;;;5.90
19666;BMP180;9980;51.020;7.772;2023-04-03T00:40:21;98607.00;;;5.90
19666;BMP180;9980;51.020;7.772;2023-04-03T00:42:55;98600.00;;;5.80
19666;BMP180;9980;51.020;7.772;2023-04-03T00:45:34;98609.00;;;5.80
19666;BMP180;9980;51.020;7.772;2023-04-03T00:48:05;98621.00;;;5.80
19666;BMP180;9980;51.020;7.772;2023-04-03T00:50:37;98605.00;;;5.70
19666;BMP180;9980;51.020;7.772;2023-04-03T00:53:08;98603.00;;;5.70
19666;BMP180;9980;51.020;7.772;2023-04-03T00:55:37;98609.00;;;5.70
19666;BMP180;9980;51.020;7.772;2023-04-03T00:58:07;98605.00;;;5.60
19666;BMP180;9980;51.020;7.772;2023-04-03T01:00:40;98612.00;;;5.60
19666;BMP180;9980;51.020;7.772;2023-04-03T01:03:08;98605.00;;;5.60
19666;BMP180;9980;51.020;7.772;2023-04-03T01:05:39;98603.00;;;5.50
19666;BMP180;9980;51.020;7.772;2023-04-03T01:08:06;98608.00;;;5.50
19666;BMP180;9980;51.020;7.772;2023-04-03T01:10:34;98607.00;;;5.50
19666;BMP180;9980;51.020;7.772;2023-04-03T01:13:01;98606.00;;;5.40
19666;BMP180;9980;51.020;7.772;2023-04-03T01:15:28;98618.00;;;5.40
19666;BMP180;9980;51.020;7.772;2023-04-03T01:18:01;98606.00;;;5.40
19666;BMP180;9980;51.020;7.772;2023-04-03T01:24:03;98612.00;;;5.30
19666;BMP180;9980;51.020;7.772;2023-04-03T01:26:33;98611.00;;;5.30
19666;BMP180;9980;51.020;7.772;2023-04-03T01:29:01;98593.00;;;5.20
19666;BMP180;9980;51.020;7.772;2023-04-03T01:31:53;98604.00;;;5.20
19666;BMP180;9980;51.020;7.772;2023-04-03T01:34:21;98616.00;;;5.20
19666;BMP180;9980;51.020;7.772;2023-04-03T01:36:50;98612.00;;;5.10
19666;BMP180;9980;51.020;7.772;2023-04-03T01:39:18;98600.00;;;5.10
19666;BMP180;9980;51.020;7.772;2023-04-03T01:41:45;98612.00;;;5.10
19666;BMP180;9980;51.020;7.772;2023-04-03T01:44:20;98616.00;;;5.10
19666;BMP180;9980;51.020;7.772;2023-04-03T01:46:47;98617.00;;;5.00
19666;BMP180;9980;51.020;7.772;2023-04-03T01:49:14;98627.00;;;5.00
19666;BMP180;9980;51.020;7.772;2023-04-03T01:51:41;98608.00;;;5.00
19666;BMP180;9980;51.020;7.772;2023-04-03T01:54:08;98593.00;;;5.00
19666;BMP180;9980;51.020;7.772;2023-04-03T01:56:35;98612.00;;;4.90
19666;BMP180;9980;51.020;7.772;2023-04-03T01:59:02;98594.00;;;4.90
19666;BMP180;9980;51.020;7.772;2023-04-03T02:01:29;98608.00;;;4.90
19666;BMP180;9980;51.020;7.772;2023-04-03T02:03:57;98616.00;;;4.80
19666;BMP180;9980;51.020;7.772;2023-04-03T02:11:06;98628.00;;;4.70
19666;BMP180;9980;51.020;7.772;2023-04-03T02:13:33;98597.00;;;4.70
19666;BMP180;9980;51.020;7.772;2023-04-03T02:16:07;98591.00;;;4.60
19666;BMP180;9980;51.020;7.772;2023-04-03T02:18:34;98612.00;;;4.60
19666;BMP180;9980;51.020;7.772;2023-04-03T02:21:01;98617.00;;;4.60
19666;BMP180;9980;51.020;7.772;2023-04-03T02:23:28;98617.00;;;4.60
19666;BMP180;9980;51.020;7.772;2023-04-03T02:26:11;98606.00;;;4.50
19666;BMP180;9980;51.020;7.772;2023-04-03T02:28:38;98610.00;;;4.50
19666;BMP180;9980;51.020;7.772;2023-04-03T02:31:07;98624.00;;;4.50
19666;BMP180;9980;51.020;7.772;2023-04-03T02:33:36;98619.00;;;4.50
19666;BMP180;9980;51.020;7.772;2023-04-03T02:36:08;98612.00;;;4.40
19666;BMP180;9980;51.020;7.772;2023-04-03T02:38:36;98609.00;;;4.40
19666;BMP180;9980;51.020;7.772;2023-04-03T02:41:07;98623.00;;;4.40
19666;BMP180;9980;51.020;7.772;2023-04-03T02:43:35;98625.00;;;4.40
19666;BMP180;9980;51.020;7.772;2023-04-03T02:46:04;98625.00;;;4.30
19666;BMP180;9980;51.020;7.772;2023-04-03T02:48:32;98581.00;;;4.30
19666;BMP180;9980;51.020;7.772;2023-04-03T02:50:59;98626.00;;;4.30
19666;BMP180;9980;51.020;7.772;2023-04-03T02:53:26;98628.00;;;4.30
19666;BMP180;9980;51.020;7.772;2023-04-03T02:55:53;98630.00;;;4.20
19666;BMP180;9980;51.020;7.772;2023-04-03T02:58:20;98621.00;;;4.20
19666;BMP180;9980;51.020;7.772;2023-04-03T03:00:47;98619.00;;;4.20
19666;BMP180;9980;51.020;7.772;2023-04-03T03:03:14;98614.00;;;4.20
19666;BMP180;9980;51.020;7.772;2023-04-03T03:05:41;98628.00;;;4.10
19666;BMP180;9980;51.020;7.772;2023-04-03T03:08:08;98625.00;;;4.10
19666;BMP180;9980;51.020;7.772;2023-04-03T03:10:35;98615.00;;;4.10
19666;BMP180;9980;51.020;7.772;2023-04-03T03:13:03;98607.00;;;4.10
19666;BMP180;9980;51.020;7.772;2023-04-03T03:15:30;98628.00;;;4.10
19666;BMP180;9980;51.020;7.772;2023-04-03T03:17:57;98617.00;;;4.00
19666;BMP180;9980;51.020;7.772;2023-04-03T03:20:25;98612.00;;;4.00
19666;BMP180;9980;51.020;7.772;2023-04-03T03:22:52;98622.00;;;4.00
19666;BMP180;9980;51.020;7.772;2023-04-03T03:25:19;98622.00;;;4.00
19666;BMP180;9980;51.020;7.772;2023-04-03T03:27:46;98611.00;;;4.00
19666;BMP180;9980;51.020;7.772;2023-04-03T03:30:12;98637.00;;;4.00
19666;BMP180;9980;51.020;7.772;2023-04-03T03:32:39;98630.00;;;3.90
19666;BMP180;9980;51.020;7.772;2023-04-03T03:35:07;98632.00;;;3.90
19666;BMP180;9980;51.020;7.772;2023-04-03T03:37:34;98622.00;;;3.90
19666;BMP180;9980;51.020;7.772;2023-04-03T03:40:01;98625.00;;;3.90
19666;BMP180;9980;51.020;7.772;2023-04-03T03:42:29;98634.00;;;3.90
19666;BMP180;9980;51.020;7.772;2023-04-03T03:44:56;98639.00;;;3.80
19666;BMP180;9980;51.020;7.772;2023-04-03T03:47:23;98635.00;;;3.80
19666;BMP180;9980;51.020;7.772;2023-04-03T03:49:50;98641.00;;;3.80
19666;BMP180;9980;51.020;7.772;2023-04-03T03:52:17;98639.00;;;3.80
19666;BMP180;9980;51.020;7.772;2023-04-03T03:54:44;98637.00;;;3.70
19666;BMP180;9980;51.020;7.772;2023-04-03T03:57:11;98634.00;;;3.70
19666;BMP180;9980;51.020;7.772;2023-04-03T03:59:39;98643.00;;;3.70
19666;BMP180;9980;51.020;7.772;2023-04-03T04:02:08;98634.00;;;3.70
19666;BMP180;9980;51.020;7.772;2023-04-03T04:04:36;98636.00;;;3.70
19666;BMP180;9980;51.020;7.772;2023-04-03T04:07:04;98632.00;;;3.70
19666;BMP180;9980;51.020;7.772;2023-04-03T04:09:32;98630.00;;;3.60
19666;BMP180;9980;51.020;7.772;2023-04-03T04:12:00;98644.00;;;3.60
19666;BMP180;9980;51.020;7.772;2023-04-03T04:14:29;98632.00;;;3.60
19666;BMP180;9980;51.020;7.772;2023-04-03T04:16:56;98646.00;;;3.60
19666;BMP180;9980;51.020;7.772;2023-04-03T04:19:25;98643.00;;;3.60
19666;BMP180;9980;51.020;7.772;2023-04-03T04:21:53;98653.00;;;3.50
19666;BMP180;9980;51.020;7.772;2023-04-03T04:24:20;98656.00;;;3.50
19666;BMP180;9980;51.020;7.772;2023-04-03T04:26:51;98635.00;;;3.50
19666;BMP180;9980;51.020;7.772;2023-04-03T04:29:19;98617.00;;;3.50
19666;BMP180;9980;51.020;7.772;2023-04-03T04:31:49;98629.00;;;3.40
19666;BMP180;9980;51.020;7.772;2023-04-03T04:34:16;98638.00;;;3.40
19666;BMP180;9980;51.020;7.772;2023-04-03T04:36:43;98627.00;;;3.40
19666;BMP180;9980;51.020;7.772;2023-04-03T04:39:11;98633.00;;;3.40
19666;BMP180;9980;51.020;7.772;2023-04-03T04:41:39;98626.00;;;3.40
19666;BMP180;9980;51.020;7.772;2023-04-03T04:44:06;98637.00;;;3.40
19666;BMP180;9980;51.020;7.772;2023-04-03T04:46:33;98650.00;;;3.30
19666;BMP180;9980;51.020;7.772;2023-04-03T04:49:01;98649.00;;;3.30
19666;BMP180;9980;51.020;7.772;2023-04-03T04:51:29;98644.00;;;3.30
19666;BMP180;9980;51.020;7.772;2023-04-03T04:54:15;98648.00;;;3.20
19666;BMP180;9980;51.020;7.772;2023-04-03T04:56:43;98651.00;;;3.20
19666;BMP180;9980;51.020;7.772;2023-04-03T04:59:10;98647.00;;;3.20
19666;BMP180;9980;51.020;7.772;2023-04-03T05:01:37;98664.00;;;3.20
19666;BMP180;9980;51.020;7.772;2023-04-03T05:04:09;98665.00;;;3.20
19666;BMP180;9980;51.020;7.772;2023-04-03T05:06:37;98644.00;;;3.20
19666;BMP180;9980;51.020;7.772;2023-04-03T05:09:08;98658.00;;;3.10
19666;BMP180;9980;51.020;7.772;2023-04-03T05:11:37;98667.00;;;3.10
19666;BMP180;9980;51.020;7.772;2023-04-03T05:14:05;98655.00;;;3.10
19666;BMP180;9980;51.020;7.772;2023-04-03T05:16:34;98673.00;;;3.10
19666;BMP180;9980;51.020;7.772;2023-04-03T05:19:01;98667.00;;;3.10
19666;BMP180;9980;51.020;7.772;2023-04-03T05:21:29;98667.00;;;3.00
19666;BMP180;9980;51.020;7.772;2023-04-03T05:24:03;98664.00;;;3.00
19666;BMP180;9980;51.020;7.772;2023-04-03T05:26:33;98692.00;;;3.00
19666;BMP180;9980;51.020;7.772;2023-04-03T05:29:01;98681.00;;;3.00
19666;BMP180;9980;51.020;7.772;2023-04-03T05:31:30;98683.00;;;3.00
19666;BMP180;9980;51.020;7.772;2023-04-03T05:33:57;98694.00;;;3.00
19666;BMP180;9980;51.020;7.772;2023-04-03T05:36:26;98684.00;;;3.00
19666;BMP180;9980;51.020;7.772;2023-04-03T05:38:58;98693.00;;;3.00
19666;BMP180;9980;51.020;7.772;2023-04-03T05:41:25;98688.00;;;3.00
19666;BMP180;9980;51.020;7.772;2023-04-03T05:43:52;98681.00;;;3.00
19666;BMP180;9980;51.020;7.772;2023-04-03T05:46:21;98685.00;;;3.00
19666;BMP180;9980;51.020;7.772;2023-04-03T05:48:52;98686.00;;;3.00
19666;BMP180;9980;51.020;7.772;2023-04-03T05:51:28;98700.00;;;3.00
19666;BMP180;9980;51.020;7.772;2023-04-03T05:54:34;98687.00;;;3.00
19666;BMP180;9980;51.020;7.772;2023-04-03T05:57:11;98672.00;;;3.10
19666;BMP180;9980;51.020;7.772;2023-04-03T05:59:40;98704.00;;;3.10
19666;BMP180;9980;51.020;7.772;2023-04-03T06:02:10;98703.00;;;3.20
19666;BMP180;9980;51.020;7.772;2023-04-03T06:04:38;98702.00;;;3.20
19666;BMP180;9980;51.020;7.772;2023-04-03T06:07:06;98711.00;;;3.30
19666;BMP180;9980;51.020;7.772;2023-04-03T06:09:34;98706.00;;;3.30
19666;BMP180;9980;51.020;7.772;2023-04-03T06:12:01;98710.00;;;3.40
19666;BMP180;9980;51.020;7.772;2023-04-03T06:14:29;98697.00;;;3.50
19666;BMP180;9980;51.020;7.772;2023-04-03T06:16:56;98696.00;;;3.60
19666;BMP180;9980;51.020;7.772;2023-04-03T06:19:23;98705.00;;;3.60
19666;BMP180;9980;51.020;7.772;2023-04-03T06:21:54;98711.00;;;3.70
19666;BMP180;9980;51.020;7.772;2023-04-03T06:24:23;98709.00;;;3.80
19666;BMP180;9980;51.020;7.772;2023-04-03T06:26:52;98709.00;;;3.90
19666;BMP180;9980;51.020;7.772;2023-04-03T06:29:20;98719.00;;;4.00
19666;BMP180;9980;51.020;7.772;2023-04-03T06:31:47;98715.00;;;4.10
19666;BMP180;9980;51.020;7.772;2023-04-03T06:34:15;98726.00;;;4.20
19666;BMP180;9980;51.020;7.772;2023-04-03T06:36:45;98715.00;;;4.30
19666;BMP180;9980;51.020;7.772;2023-04-03T06:39:18;98723.00;;;4.40
19666;BMP180;9980;51.020;7.772;2023-04-03T06:41:46;98739.00;;;4.50
19666;BMP180;9980;51.020;7.772;2023-04-03T06:44:14;98722.00;;;4.50
19666;BMP180;9980;51.020;7.772;2023-04-03T06:46:44;98721.00;;;4.60
19666;BMP180;9980;51.020;7.772;2023-04-03T06:49:12;98736.00;;;4.70
19666;BMP180;9980;51.020;7.772;2023-04-03T06:51:39;98735.00;;;4.80
19666;BMP180;9980;51.020;7.772;2023-04-03T06:54:06;98740.00;;;4.90
19666;BMP180;9980;51.020;7.772;2023-04-03T06:56:35;98743.00;;;4.90
19666;BMP180;9980;51.020;7.772;2023-04-03T06:59:02;98744.00;;;5.00
19666;BMP180;9980;51.020;7.772;2023-04-03T07:01:30;98750.00;;;5.10
19666;BMP180;9980;51.020;7.772;2023-04-03T07:03:57;98738.00;;;5.20
19666;BMP180;9980;51.020;7.772;2023-04-03T07:06:24;98736.00;;;5.30
19666;BMP180;9980;51.020;7.772;2023-04-03T07:08:55;98759.00;;;5.30
19666;BMP180;9980;51.020;7.772;2023-04-03T07:11:22;98749.00;;;5.40
19666;BMP180;9980;51.020;7.772;2023-04-03T07:13:50;98753.00;;;5.50
19666;BMP180;9980;51.020;7.772;2023-04-03T07:16:17;98742.00;;;5.50
19666;BMP180;9980;51.020;7.772;2023-04-03T07:18:46;98752.00;;;5.60
19666;BMP180;9980;51.020;7.772;2023-04-03T07:21:13;98747.00;;;5.70
19666;BMP180;9980;51.020;7.772;2023-04-03T07:23:40;98737.00;;;5.80
19666;BMP180;9980;51.020;7.772;2023-04-03T07:26:07;98751.00;;;5.90
19666;BMP180;9980;51.020;7.772;2023-04-03T07:28:34;98751.00;;;5.90
19666;BMP180;9980;51.020;7.772;2023-04-03T07:31:06;98756.00;;;6.00
19666;BMP180;9980;51.020;7.772;2023-04-03T07:33:35;98759.00;;;6.10
19666;BMP180;9980;51.020;7.772;2023-04-03T07:36:04;98753.00;;;6.10
19666;BMP180;9980;51.020;7.772;2023-04-03T07:38:31;98763.00;;;6.20
19666;BMP180;9980;51.020;7.772;2023-04-03T07:40:58;98762.00;;;6.30
19666;BMP180;9980;51.020;7.772;2023-04-03T07:43:25;98751.00;;;6.30
19666;BMP180;9980;51.020;7.772;2023-04-03T07:45:53;98778.00;;;6.40
19666;BMP180;9980;51.020;7.772;2023-04-03T07:48:25;98761.00;;;6.50
19666;BMP180;9980;51.020;7.772;2023-04-03T07:50:52;98756.00;;;6.60
19666;BMP180;9980;51.020;7.772;2023-04-03T07:53:19;98767.00;;;6.70
19666;BMP180;9980;51.020;7.772;2023-04-03T07:55:48;98767.00;;;6.70
19666;BMP180;9980;51.020;7.772;2023-04-03T07:58:18;98748.00;;;6.90
19666;BMP180;9980;51.020;7.772;2023-04-03T08:00:45;98756.00;;;7.00
19666;BMP180;9980;51.020;7.772;2023-04-03T08:03:14;98760.00;;;7.10
19666;BMP180;9980;51.020;7.772;2023-04-03T08:05:47;98757.00;;;7.20
19666;BMP180;9980;51.020;7.772;2023-04-03T08:08:19;98770.00;;;7.30
19666;BMP180;9980;51.020;7.772;2023-04-03T08:10:52;98762.00;;;7.40
19666;BMP180;9980;51.020;7.772;2023-04-03T08:13:21;98754.00;;;7.50
19666;BMP180;9980;51.020;7.772;2023-04-03T08:15:48;98764.00;;;7.60
19666;BMP180;9980;51.020;7.772;2023-04-03T08:18:15;98770.00;;;7.70
19666;BMP180;9980;51.020;7.772;2023-04-03T08:20:43;98757.00;;;7.80
19666;BMP180;9980;51.020;7.772;2023-04-03T08:23:11;98752.00;;;7.90
19666;BMP180;9980;51.020;7.772;2023-04-03T08:25:40;98756.00;;;8.00
19666;BMP180;9980;51.020;7.772;2023-04-03T08:28:11;98734.00;;;8.00
19666;BMP180;9980;51.020;7.772;2023-04-03T08:30:42;98750.00;;;8.10
19666;BMP180;9980;51.020;7.772;2023-04-03T08:33:10;98755.00;;;8.20
19666;BMP180;9980;51.020;7.772;2023-04-03T08:35:41;98755.00;;;8.30
19666;BMP180;9980;51.020;7.772;2023-04-03T08:38:10;98765.00;;;8.40
19666;BMP180;9980;51.020;7.772;2023-04-03T08:40:37;98762.00;;;8.50
19666;BMP180;9980;51.020;7.772;2023-04-03T08:45:53;98776.00;;;8.60
19666;BMP180;9980;51.020;7.772;2023-04-03T08:48:29;98764.00;;;8.70
19666;BMP180;9980;51.020;7.772;2023-04-03T08:51:02;98765.00;;;8.70
19666;BMP180;9980;51.020;7.772;2023-04-03T08:53:43;98777.00;;;8.80
19666;BMP180;9980;51.020;7.772;2023-04-03T08:56:15;98767.00;;;8.90
19666;BMP180;9980;51.020;7.772;2023-04-03T08:58:58;98775.00;;;8.90
19666;BMP180;9980;51.020;7.772;2023-04-03T09:01:35;98782.00;;;9.00
19666;BMP180;9980;51.020;7.772;2023-04-03T09:04:12;98788.00;;;9.10
19666;BMP180;9980;51.020;7.772;2023-04-03T09:06:45;98777.00;;;9.10
19666;BMP180;9980;51.020;7.772;2023-04-03T09:12:27;98762.00;;;9.20
19666;BMP180;9980;51.020;7.772;2023-04-03T09:15:19;98773.00;;;9.30
19666;BMP180;9980;51.020;7.772;2023-04-03T09:18:22;98772.00;;;9.50
19666;BMP180;9980;51.020;7.772;2023-04-03T09:24:15;98791.00;;;9.70
19666;BMP180;9980;51.020;7.772;2023-04-03T09:26:53;98772.00;;;9.80
19666;BMP180;9980;51.020;7.772;2023-04-03T09:29:24;98794.00;;;9.90
19666;BMP180;9980;51.020;7.772;2023-04-03T09:32:03;98779.00;;;9.90
19666;BMP180;9980;51.020;7.772;2023-04-03T09:34:37;98777.00;;;9.90
19666;BMP180;9980;51.020;7.772;2023-04-03T09:37:05;98764.00;;;9.90
19666;BMP180;9980;51.020;7.772;2023-04-03T09:39:53;98773.00;;;10.00
19666;BMP180;9980;51.020;7.772;2023-04-03T09:42:24;98765.00;;;10.10
19666;BMP180;9980;51.020;7.772;2023-04-03T09:44:58;98791.00;;;10.10
19666;BMP180;9980;51.020;7.772;2023-04-03T09:50:20;98770.00;;;10.10
19666;BMP180;9980;51.020;7.772;2023-04-03T09:52:50;98781.00;;;10.20
19666;BMP180;9980;51.020;7.772;2023-04-03T09:55:27;98761.00;;;10.20
19666;BMP180;9980;51.020;7.772;2023-04-03T09:58:03;98753.00;;;10.30
19666;BMP180;9980;51.020;7.772;2023-04-03T10:00:36;98765.00;;;10.40
19666;BMP180;9980;51.020;7.772;2023-04-03T10:03:04;98759.00;;;10.40
19666;BMP180;9980;51.020;7.772;2023-04-03T10:05:40;98767.00;;;10.40
19666;BMP180;9980;51.020;7.772;2023-04-03T10:10:47;98758.00;;;10.50
19666;BMP180;9980;51.020;7.772;2023-04-03T10:13:20;98743.00;;;10.50
19666;BMP180;9980;51.020;7.772;2023-04-03T10:16:09;98762.00;;;10.60
19666;BMP180;9980;51.020;7.772;2023-04-03T10:27:55;98760.00;;;10.80
19666;BMP180;9980;51.020;7.772;2023-04-03T10:30:42;98733.00;;;10.80
19666;BMP180;9980;51.020;7.772;2023-04-03T10:40:02;98746.00;;;10.90
19666;BMP180;9980;51.020;7.772;2023-04-03T10:42:45;98756.00;;;11.00
19666;BMP180;9980;51.020;7.772;2023-04-03T10:45:26;98757.00;;;11.10
19666;BMP180;9980;51.020;7.772;2023-04-03T10:51:24;98744.00;;;11.30
19666;BMP180;9980;51.020;7.772;2023-04-03T10:56:45;98735.00;;;11.50
19666;BMP180;9980;51.020;7.772;2023-04-03T10:59:47;98733.00;;;11.60
19666;BMP180;9980;51.020;7.772;2023-04-03T11:02:28;98725.00;;;11.70
19666;BMP180;9980;51.020;7.772;2023-04-03T11:05:13;98726.00;;;11.70
19666;BMP180;9980;51.020;7.772;2023-04-03T11:07:48;98729.00;;;11.80
19666;BMP180;9980;51.020;7.772;2023-04-03T11:10:44;98726.00;;;11.90
19666;BMP180;9980;51.020;7.772;2023-04-03T11:13:33;98727.00;;;12.00
19666;BMP180;9980;51.020;7.772;2023-04-03T11:16:03;98738.00;;;12.00
19666;BMP180;9980;51.020;7.772;2023-04-03T11:21:42;98724.00;;;12.10
19666;BMP180;9980;51.020;7.772;2023-04-03T11:24:22;98712.00;;;12.20
19666;BMP180;9980;51.020;7.772;2023-04-03T11:26:51;98703.00;;;12.30
19666;BMP180;9980;51.020;7.772;2023-04-03T11:29:26;98715.00;;;12.40
19666;BMP180;9980;51.020;7.772;2023-04-03T11:35:01;98712.00;;;12.50
19666;BMP180;9980;51.020;7.772;2023-04-03T11:37:41;98722.00;;;12.60
19666;BMP180;9980;51.020;7.772;2023-04-03T11:40:26;98708.00;;;12.60
19666;BMP180;9980;51.020;7.772;2023-04-03T11:45:50;98718.00;;;12.70
19666;BMP180;9980;51.020;7.772;2023-04-03T11:50:57;98694.00;;;12.80
19666;BMP180;9980;51.020;7.772;2023-04-03T11:53:36;98697.00;;;12.80
19666;BMP180;9980;51.020;7.772;2023-04-03T11:59:22;98700.00;;;12.80
19666;BMP180;9980;51.020;7.772;2023-04-03T12:01:56;98675.00;;;12.90
19666;BMP180;9980;51.020;7.772;2023-04-03T12:04:26;98684.00;;;12.90
19666;BMP180;9980;51.020;7.772;2023-04-03T12:07:11;98695.00;;;12.90
19666;BMP180;9980;51.020;7.772;2023-04-03T12:12:37;98677.00;;;12.90
19666;BMP180;9980;51.020;7.772;2023-04-03T12:17:51;98680.00;;;13.00
19666;BMP180;9980;51.020;7.772;2023-04-03T12:23:35;98667.00;;;13.10
19666;BMP180;9980;51.020;7.772;2023-04-03T12:26:51;98665.00;;;13.10
19666;BMP180;9980;51.020;7.772;2023-04-03T12:38:30;98667.00;;;13.10
19666;BMP180;9980;51.020;7.772;2023-04-03T12:40:45;98655.00;;;13.10
19666;BMP180;9980;51.020;7.772;2023-04-03T12:43:41;98664.00;;;13.20
19666;BMP180;9980;51.020;7.772;2023-04-03T12:46:11;98652.00;;;13.20
19666;BMP180;9980;51.020;7.772;2023-04-03T12:48:49;98658.00;;;13.30
19666;BMP180;9980;51.020;7.772;2023-04-03T12:51:40;98666.00;;;13.30
19666;BMP180;9980;51.020;7.772;2023-04-03T12:54:19;98664.00;;;13.30
19666;BMP180;9980;51.020;7.772;2023-04-03T12:56:48;98640.00;;;13.40
19666;BMP180;9980;51.020;7.772;2023-04-03T12:59:26;98650.00;;;13.40
19666;BMP180;9980;51.020;7.772;2023-04-03T13:02:00;98649.00;;;13.40
19666;BMP180;9980;51.020;7.772;2023-04-03T13:04:29;98638.00;;;13.50
19666;BMP180;9980;51.020;7.772;2023-04-03T13:06:57;98640.00;;;13.50
19666;BMP180;9980;51.020;7.772;2023-04-03T13:09:30;98631.00;;;13.50
19666;BMP180;9980;51.020;7.772;2023-04-03T13:12:12;98628.00;;;13.50
19666;BMP180;9980;51.020;7.772;2023-04-03T13:14:40;98624.00;;;13.60
19666;BMP180;9980;51.020;7.772;2023-04-03T13:17:14;98616.00;;;13.60
19666;BMP180;9980;51.020;7.772;2023-04-03T13:19:44;98639.00;;;13.70
19666;BMP180;9980;51.020;7.772;2023-04-03T13:22:36;98645.00;;;13.60
19666;BMP180;9980;51.020;7.772;2023-04-03T13:25:14;98646.00;;;13.60
19666;BMP180;9980;51.020;7.772;2023-04-03T13:27:43;98646.00;;;13.60
19666;BMP180;9980;51.020;7.772;2023-04-03T13:30:38;98647.00;;;13.50
19666;BMP180;9980;51.020;7.772;2023-04-03T13:33:22;98642.00;;;13.50
19666;BMP180;9980;51.020;7.772;2023-04-03T13:36:19;98642.00;;;13.50
19666;BMP180;9980;51.020;7.772;2023-04-03T13:39:03;98632.00;;;13.50
19666;BMP180;9980;51.020;7.772;2023-04-03T13:41:38;98640.00;;;13.60
19666;BMP180;9980;51.020;7.772;2023-04-03T13:46:59;98618.00;;;13.60
19666;BMP180;9980;51.020;7.772;2023-04-03T13:49:36;98637.00;;;13.60
19666;BMP180;9980;51.020;7.772;2023-04-03T13:52:30;98605.00;;;13.60
19666;BMP180;9980;51.020;7.772;2023-04-03T13:55:15;98605.00;;;13.60
19666;BMP180;9980;51.020;7.772;2023-04-03T13:57:57;98629.00;;;13.70
19666;BMP180;9980;51.020;7.772;2023-04-03T14:03:12;98619.00;;;13.70
19666;BMP180;9980;51.020;7.772;2023-04-03T14:05:39;98603.00;;;13.70
19666;BMP180;9980;51.020;7.772;2023-04-03T14:08:06;98604.00;;;13.80
19666;BMP180;9980;51.020;7.772;2023-04-03T14:10:33;98599.00;;;13.80
19666;BMP180;9980;51.020;7.772;2023-04-03T14:13:01;98601.00;;;13.80
19666;BMP180;9980;51.020;7.772;2023-04-03T14:15:31;98600.00;;;13.80
19666;BMP180;9980;51.020;7.772;2023-04-03T14:17:59;98602.00;;;13.80
19666;BMP180;9980;51.020;7.772;2023-04-03T14:20:29;98585.00;;;13.80
19666;BMP180;9980;51.020;7.772;2023-04-03T14:22:56;98584.00;;;13.80
19666;BMP180;9980;51.020;7.772;2023-04-03T14:25:23;98606.00;;;13.80
19666;BMP180;9980;51.020;7.772;2023-04-03T14:27:53;98596.00;;;13.80
19666;BMP180;9980;51.020;7.772;2023-04-03T14:30:31;98601.00;;;13.80
19666;BMP180;9980;51.020;7.772;2023-04-03T14:33:00;98588.00;;;13.80
19666;BMP180;9980;51.020;7.772;2023-04-03T14:35:28;98576.00;;;13.90
19666;BMP180;9980;51.020;7.772;2023-04-03T14:37:55;98587.00;;;13.90
19666;BMP180;9980;51.020;7.772;2023-04-03T14:40:27;98598.00;;;13.80
19666;BMP180;9980;51.020;7.772;2023-04-03T14:42:54;98573.00;;;13.90
19666;BMP180;9980;51.020;7.772;2023-04-03T14:45:23;98582.00;;;13.80
19666;BMP180;9980;51.020;7.772;2023-04-03T14:47:55;98601.00;;;13.80
19666;BMP180;9980;51.020;7.772;2023-04-03T14:50:26;98597.00;;;13.80
19666;BMP180;9980;51.020;7.772;2023-04-03T14:52:57;98583.00;;;13.80
19666;BMP180;9980;51.020;7.772;2023-04-03T14:55:26;98587.00;;;13.80
19666;BMP180;9980;51.020;7.772;2023-04-03T14:57:54;98592.00;;;13.70
19666;BMP180;9980;51.020;7.772;2023-04-03T15:00:22;98581.00;;;13.70
19666;BMP180;9980;51.020;7.772;2023-04-03T15:02:50;98581.00;;;13.70
19666;BMP180;9980;51.020;7.772;2023-04-03T15:05:17;98567.00;;;13.70
19666;BMP180;9980;51.020;7.772;2023-04-03T15:07:53;98564.00;;;13.70
19666;BMP180;9980;51.020;7.772;2023-04-03T15:10:25;98563.00;;;13.60
19666;BMP180;9980;51.020;7.772;2023-04-03T15:12:53;98558.00;;;13.60
19666;BMP180;9980;51.020;7.772;2023-04-03T15:15:23;98573.00;;;13.60
19666;BMP180;9980;51.020;7.772;2023-04-03T15:17:55;98561.00;;;13.60
19666;BMP180;9980;51.020;7.772;2023-04-03T15:20:26;98566.00;;;13.60
19666;BMP180;9980;51.020;7.772;2023-04-03T15:22:54;98567.00;;;13.60
19666;BMP180;9980;51.020;7.772;2023-04-03T15:25:24;98565.00;;;13.50
19666;BMP180;9980;51.020;7.772;2023-04-03T15:27:54;98579.00;;;13.60
19666;BMP180;9980;51.020;7.772;2023-04-03T15:30:21;98576.00;;;13.50
19666;BMP180;9980;51.020;7.772;2023-04-03T15:32:49;98573.00;;;13.50
19666;BMP180;9980;51.020;7.772;2023-04-03T15:35:17;98569.00;;;13.40
19666;BMP180;9980;51.020;7.772;2023-04-03T15:37:45;98567.00;;;13.40
19666;BMP180;9980;51.020;7.772;2023-04-03T15:42:53;98560.00;;;13.30
19666;BMP180;9980;51.020;7.772;2023-04-03T15:45:20;98573.00;;;13.40
19666;BMP180;9980;51.020;7.772;2023-04-03T15:47:48;98555.00;;;13.40
19666;BMP180;9980;51.020;7.772;2023-04-03T15:50:15;98567.00;;;13.30
19666;BMP180;9980;51.020;7.772;2023-04-03T15:52:43;98583.00;;;13.30
19666;BMP180;9980;51.020;7.772;2023-04-03T15:55:09;98562.00;;;13.20
19666;BMP180;9980;51.020;7.772;2023-04-03T15:57:36;98560.00;;;13.20
19666;BMP180;9980;51.020;7.772;2023-04-03T16:00:09;98557.00;;;13.10
19666;BMP180;9980;51.020;7.772;2023-04-03T16:02:36;98560.00;;;13.10
19666;BMP180;9980;51.020;7.772;2023-04-03T16:05:03;98559.00;;;13.10
19666;BMP180;9980;51.020;7.772;2023-04-03T16:07:31;98576.00;;;13.00
19666;BMP180;9980;51.020;7.772;2023-04-03T16:09:58;98570.00;;;13.00
19666;BMP180;9980;51.020;7.772;2023-04-03T16:12:25;98578.00;;;13.00
19666;BMP180;9980;51.020;7.772;2023-04-03T16:14:52;98581.00;;;12.90
19666;BMP180;9980;51.020;7.772;2023-04-03T16:17:18;98582.00;;;12.90